Flight Track Log - Related Links

Times and Time Zones

All times are in EDT time to prevent confusion due to time zone crossing. See the FLG3777 flight status page for this flight to view local times or setup timezone preferences in your user account.

Time Position Orientation Groundspeed Altitude Reporting Facility
EDT Latitude Longitude Course Direction KTS MPH feet Rate Location/Type
Sun 02:09:42 PM 41.9000 -87.9167 171° South 191 220 2,900  Level Chicago TRACON
Sun 02:11:00 PM 41.7205 -87.6021 159° South  Level Estimated
Sun 02:11:19 PM 41.8167 -87.8789 161° South 236 272 5,700  Level Chicago Center
Sun 02:12:00 PM 41.6333 -87.5012 153° Southeast  Level Estimated
Sun 02:12:21 PM 41.7500 -87.8247 149° Southeast 273 314 8,100  Level Chicago Center
Sun 02:13:00 PM 41.5459 -87.4005 159° South  Level Estimated
Sun 02:13:23 PM 41.6683 -87.7617 150° Southeast 282 325 10,700  Level Chicago Center
Sun 02:14:00 PM 41.4585 -87.3001 171° South  Level Estimated
Sun 02:14:25 PM 41.5967 -87.7061 150° Southeast 296 341 12,800  Level Chicago Center
Sun 02:15:27 PM 41.5308 -87.6336 140° Southeast 305 351 14,800 1,790 Climbing Chicago Center
Sun 02:16:29 PM 41.4642 -87.5631 142° Southeast 305 351 16,500 1,258 Climbing Chicago Center
Sun 02:17:31 PM 41.3883 -87.4928 145° Southeast 326 375 17,400 871 Climbing Chicago Center
Sun 02:18:33 PM 41.3008 -87.4294 151° Southeast 353 406 18,300 1,016 Climbing Chicago Center
Sun 02:19:35 PM 41.1933 -87.3511 151° Southeast 366 421 19,500 1,113 Climbing Chicago Center
Sun 02:20:37 PM 41.1025 -87.2842 151° Southeast 372 428 20,600 1,016 Climbing Chicago Center
Sun 02:21:39 PM 41.0100 -87.2181 152° Southeast 380 437 21,600 968 Climbing Chicago Center
Sun 02:22:41 PM 40.9172 -87.1517 152° Southeast 380 437 22,600 677 Climbing Chicago Center
Sun 02:23:43 PM 40.8242 -87.0839 151° Southeast 384 442 23,000 194 Climbing Chicago Center
Sun 02:24:45 PM 40.7242 -87.0131 152° Southeast 407 468 23,000  Level Chicago Center
Sun 02:25:47 PM 40.6117 -86.9050 144° Southeast 432 497 23,000  Level Chicago Center
Sun 02:26:49 PM 40.5183 -86.8022 140° Southeast 438 504 23,000  Level Chicago Center
Sun 02:27:51 PM 40.4250 -86.6967 139° Southeast 442 509 23,000  Level Chicago Center
Sun 02:28:53 PM 40.3292 -86.5914 140° Southeast 446 513 23,000  Level Chicago Center
Sun 02:29:55 PM 40.2331 -86.4839 139° Southeast 452 520 23,000  Level Chicago Center
Sun 02:30:57 PM 40.1372 -86.3778 140° Southeast 451 519 23,000  Level Chicago Center
Sun 02:31:40 PM 40.0586 -86.2911 140° Southeast 454 522 23,000 -114 Level Indianapolis Center
Sun 02:32:42 PM 39.9650 -86.1756 137° Southeast 459 528 22,800 -387 Descending Indianapolis Center
Sun 02:33:44 PM 39.8878 -86.0439 127° Southeast 452 520 22,200 -1,597 Descending Indianapolis Center
Sun 02:34:46 PM 39.8131 -85.9189 128° Southeast 437 503 19,500 -1,463 Descending Indianapolis Center
Sun 02:36:24 PM 39.7000 -85.7333 128° Southeast 378 435 18,300 -761 Descending Cincinnati TRACON
Sun 02:37:08 PM 39.6556 -85.6733 134° Southeast 345 397 17,700 -1,517 Descending Chicago Center
Sun 02:37:51 PM 39.6028 -85.6022 134° Southeast 340 391 16,100 -2,057 Descending Indianapolis Center
Sun 02:38:53 PM 39.5306 -85.5031 133° Southeast 374 430 14,100 -1,161 Descending Indianapolis Center
Sun 02:39:55 PM 39.4753 -85.3983 124° Southeast 356 410 13,700 -774 Descending Indianapolis Center
Sun 02:40:57 PM 39.4406 -85.2956 114° Southeast 316 364 12,500 -1,016 Descending Indianapolis Center
Sun 02:41:59 PM 39.4097 -85.1969 112° Southeast 301 346 11,600 -919 Descending Indianapolis Center
Sun 02:43:01 PM 39.3769 -85.0975 113° Southeast 302 348 10,600 -1,065 Descending Indianapolis Center
Sun 02:44:03 PM 39.3397 -84.9822 113° Southeast 291 335 9,400 -1,210 Descending Indianapolis Center
Sun 02:45:05 PM 39.3078 -84.8897 114° Southeast 284 327 8,100 -1,415 Descending Indianapolis Center
Sun 02:46:06 PM 39.2775 -84.7975 113° Southeast 285 328 6,500 -1,512 Descending Indianapolis Center
Sun 02:47:08 PM 39.2475 -84.7064 113° Southeast 278 320 5,000 -1,452 Descending Indianapolis Center

Login

Don't have an account? Register now (free) for customized features, flight alerts, and more!